createdAt,value
2018-12-15T00:00:16.146Z,7.97
2018-12-15T00:02:56.908Z,9.10
2018-12-15T00:05:37.754Z,7.97
2018-12-15T00:08:11.161Z,8.20
2018-12-15T00:10:51.855Z,8.37
2018-12-15T00:13:32.758Z,8.63
2018-12-15T00:16:03.268Z,8.63
2018-12-15T00:18:43.608Z,9.63
2018-12-15T00:21:23.599Z,8.20
2018-12-15T00:24:03.623Z,7.20
2018-12-15T00:26:34.162Z,9.77
2018-12-15T00:29:14.430Z,10.07
2018-12-15T00:31:54.376Z,9.70
2018-12-15T00:34:28.595Z,9.93
2018-12-15T00:36:59.543Z,9.17
2018-12-15T00:39:39.910Z,9.53
2018-12-15T00:42:10.614Z,9.73
2018-12-15T00:44:39.810Z,10.67
2018-12-15T00:47:14.096Z,9.87
2018-12-15T00:49:54.194Z,9.87
2018-12-15T00:52:34.922Z,9.80
2018-12-15T00:55:06.164Z,10.90
2018-12-15T00:57:46.362Z,9.57
2018-12-15T01:00:27.308Z,10.50
2018-12-15T01:03:07.355Z,11.33
2018-12-15T01:05:47.327Z,8.67
2018-12-15T01:08:28.206Z,9.93
2018-12-15T01:11:09.045Z,11.83
2018-12-15T01:13:49.049Z,11.17
2018-12-15T01:16:20.526Z,11.07
2018-12-15T01:18:53.922Z,10.67
2018-12-15T01:21:27.870Z,11.17
2018-12-15T01:24:08.449Z,10.70
2018-12-15T01:26:38.983Z,11.33
2018-12-15T01:29:07.915Z,10.13
2018-12-15T01:31:41.671Z,10.20
2018-12-15T01:34:22.271Z,11.93
2018-12-15T01:36:53.668Z,10.23
2018-12-15T01:39:34.043Z,10.23
2018-12-15T01:42:13.975Z,11.17
2018-12-15T01:44:43.410Z,11.03
2018-12-15T01:47:26.922Z,9.53
2018-12-15T01:50:05.861Z,13.97
2018-12-15T01:52:45.796Z,12.37
2018-12-15T01:55:19.083Z,10.67
2018-12-15T01:57:59.687Z,11.43
2018-12-15T02:00:33.105Z,12.27
2018-12-15T02:03:13.711Z,12.03
2018-12-15T02:05:44.356Z,11.90
2018-12-15T02:08:15.475Z,12.40
2018-12-15T02:10:49.231Z,12.07
2018-12-15T02:13:20.476Z,15.07
2018-12-15T02:16:01.035Z,13.00
2018-12-15T02:18:34.272Z,11.97
2018-12-15T02:21:14.871Z,11.07
2018-12-15T02:23:44.322Z,12.30
2018-12-15T02:26:15.262Z,13.13
2018-12-15T02:28:55.886Z,13.10
2018-12-15T02:31:31.375Z,10.40
2018-12-15T02:34:12.038Z,12.57
2018-12-15T02:36:43.510Z,10.70
2018-12-15T02:39:17.475Z,11.83
2018-12-15T02:41:58.195Z,13.47
2018-12-15T02:44:27.637Z,12.00
2018-12-15T02:46:58.438Z,11.47
2018-12-15T02:49:32.104Z,14.07
2018-12-15T02:52:12.676Z,11.53
2018-12-15T02:54:52.787Z,12.17
2018-12-15T02:57:26.046Z,13.70
2018-12-15T02:59:59.950Z,12.93
2018-12-15T03:02:40.496Z,12.43
2018-12-15T03:05:11.102Z,12.47
2018-12-15T03:07:51.631Z,12.50
2018-12-15T03:10:21.047Z,11.50
2018-12-15T03:13:01.401Z,13.17
2018-12-15T03:15:32.056Z,12.13
2018-12-15T03:18:12.544Z,13.93
2018-12-15T03:20:51.734Z,11.77
2018-12-15T03:23:32.542Z,15.13
2018-12-15T03:26:01.887Z,12.30
2018-12-15T03:28:35.431Z,14.53
2018-12-15T03:31:16.076Z,11.90
2018-12-15T03:33:56.056Z,12.13
2018-12-15T03:36:29.589Z,13.27
2018-12-15T03:39:10.260Z,13.37
2018-12-15T03:41:50.306Z,13.53
2018-12-15T03:44:20.899Z,14.27
2018-12-15T03:46:51.975Z,13.10
2018-12-15T03:49:32.500Z,13.50
2018-12-15T03:52:12.645Z,14.13
2018-12-15T03:54:42.002Z,14.03
2018-12-15T03:57:22.468Z,15.03
2018-12-15T04:00:03.343Z,15.50
2018-12-15T04:02:32.856Z,15.13
2018-12-15T04:05:06.562Z,13.70
2018-12-15T04:07:47.128Z,12.20
2018-12-15T04:10:28.001Z,12.73
2018-12-15T04:13:07.915Z,14.00
2018-12-15T04:18:23.766Z,13.13
2018-12-15T04:20:57.136Z,13.33
2018-12-15T04:23:31.103Z,18.57
2018-12-15T04:26:02.265Z,14.33
2018-12-15T04:28:42.690Z,13.37
2018-12-15T04:31:23.594Z,13.70
2018-12-15T04:34:03.800Z,14.20
2018-12-15T04:36:34.340Z,15.63
2018-12-15T04:39:14.889Z,13.40
2018-12-15T04:41:55.731Z,14.83
2018-12-15T04:44:36.650Z,15.57
2018-12-15T04:47:17.627Z,15.07
2018-12-15T04:49:57.754Z,13.43
2018-12-15T04:52:31.168Z,13.37
2018-12-15T04:55:02.424Z,12.23
2018-12-15T04:57:31.375Z,13.43
2018-12-15T05:00:11.927Z,12.63
2018-12-15T05:02:45.299Z,12.03
2018-12-15T05:05:16.311Z,11.73
2018-12-15T05:07:56.519Z,12.63
2018-12-15T05:10:27.063Z,12.37
2018-12-15T05:13:07.444Z,13.50
2018-12-15T05:15:38.868Z,13.63
2018-12-15T05:18:19.331Z,14.90
2018-12-15T05:21:00.139Z,15.27
2018-12-15T05:23:40.088Z,12.27
2018-12-15T05:26:14.284Z,12.87
2018-12-15T05:28:48.079Z,11.80
2018-12-15T05:31:21.953Z,12.47
2018-12-15T05:34:02.654Z,16.27
2018-12-15T05:36:34.103Z,14.73
2018-12-15T05:39:11.808Z,11.30
2018-12-15T05:41:52.664Z,11.97
2018-12-15T05:44:26.019Z,16.10
2018-12-15T05:46:57.277Z,14.07
2018-12-15T05:49:38.082Z,13.60
2018-12-15T05:52:18.927Z,12.67
2018-12-15T05:54:50.311Z,12.80
2018-12-15T05:57:30.950Z,13.60
2018-12-15T06:00:11.075Z,12.93
2018-12-15T06:02:51.063Z,12.33
2018-12-15T06:05:31.093Z,14.10
2018-12-15T06:08:12.011Z,11.50
2018-12-15T06:10:52.884Z,13.67
2018-12-15T06:13:24.367Z,13.30
2018-12-15T06:15:55.451Z,11.80
2018-12-15T06:18:31.773Z,11.43
2018-12-15T06:21:11.879Z,13.47
2018-12-15T06:23:45.411Z,13.03
2018-12-15T06:26:26.047Z,12.80
2018-12-15T06:28:59.431Z,12.97
2018-12-15T06:31:28.684Z,12.23
2018-12-15T06:34:09.133Z,10.70
2018-12-15T06:36:39.646Z,15.23
2018-12-15T06:39:20.414Z,11.97
2018-12-15T06:42:00.648Z,12.50
2018-12-15T06:44:49.018Z,13.23
2018-12-15T06:47:29.500Z,10.97
2018-12-15T06:50:03.178Z,12.60
2018-12-15T06:52:32.001Z,13.60
2018-12-15T06:55:06.254Z,13.23
2018-12-15T06:57:46.715Z,10.80
2018-12-15T07:00:26.743Z,10.80
2018-12-15T07:03:06.884Z,12.27
2018-12-15T07:05:37.663Z,10.47
2018-12-15T07:08:18.211Z,10.90
2018-12-15T07:10:58.336Z,12.20
2018-12-15T07:13:39.268Z,9.90
2018-12-15T07:16:10.522Z,11.90
2018-12-15T07:18:44.828Z,12.07
2018-12-15T07:21:22.498Z,11.03
2018-12-15T07:24:02.686Z,11.67
2018-12-15T07:26:34.099Z,10.40
2018-12-15T07:29:07.883Z,10.97
2018-12-15T07:31:48.423Z,11.53
2018-12-15T07:34:28.600Z,12.03
2018-12-15T07:37:01.869Z,13.30
2018-12-15T07:39:42.495Z,10.80
2018-12-15T07:42:22.542Z,10.67
2018-12-15T07:44:53.067Z,10.97
2018-12-15T07:47:21.991Z,11.77
2018-12-15T07:50:02.538Z,10.73
2018-12-15T07:52:42.586Z,12.67
2018-12-15T07:55:13.139Z,12.83
2018-12-15T07:57:53.663Z,10.70
2018-12-15T08:00:24.218Z,10.87
2018-12-15T08:03:04.704Z,10.50
2018-12-15T08:05:38.883Z,11.90
2018-12-15T08:08:07.979Z,9.77
2018-12-15T08:10:54.046Z,9.63
2018-12-15T08:13:28.455Z,11.20
2018-12-15T08:15:57.683Z,12.10
2018-12-15T08:18:26.802Z,8.50
2018-12-15T08:21:07.271Z,9.77
2018-12-15T08:23:47.203Z,10.60
2018-12-15T08:26:17.882Z,7.00
2018-12-15T08:28:58.429Z,6.07
2018-12-15T08:31:39.223Z,6.43
2018-12-15T08:34:19.223Z,6.80
2018-12-15T08:36:49.905Z,5.33
2018-12-15T08:39:30.562Z,5.43
2018-12-15T08:42:03.942Z,6.17
2018-12-15T08:44:44.465Z,5.93
2018-12-15T08:47:18.662Z,7.60
2018-12-15T08:49:59.366Z,5.07
2018-12-15T08:52:40.212Z,8.77
2018-12-15T08:55:10.759Z,7.30
2018-12-15T08:57:51.520Z,4.73
2018-12-15T09:00:31.632Z,6.00
2018-12-15T09:03:04.975Z,5.87
2018-12-15T09:05:38.907Z,5.13
2018-12-15T09:08:19.433Z,6.10
2018-12-15T09:13:45.680Z,5.57
2018-12-15T09:16:16.711Z,5.93
2018-12-15T09:18:50.535Z,5.83
2018-12-15T09:21:31.214Z,5.47
2018-12-15T09:24:11.234Z,7.20
2018-12-15T09:26:41.963Z,5.50
2018-12-15T09:29:22.419Z,6.10
2018-12-15T09:32:03.553Z,5.30
2018-12-15T09:34:32.783Z,4.77
2018-12-15T09:37:02.214Z,4.83
2018-12-15T09:39:42.928Z,5.23
2018-12-15T09:42:25.642Z,5.10
2018-12-15T09:44:56.279Z,5.87
2018-12-15T09:47:33.816Z,7.10
2018-12-15T09:50:14.707Z,5.67
2018-12-15T09:52:45.327Z,5.40
2018-12-15T09:55:16.268Z,6.20
2018-12-15T09:57:56.657Z,5.10
2018-12-15T10:00:37.327Z,5.77
2018-12-15T10:03:10.596Z,6.93
2018-12-15T10:05:41.740Z,5.90
2018-12-15T10:08:21.988Z,5.37
2018-12-15T10:10:51.326Z,5.80
2018-12-15T10:13:24.891Z,6.97
2018-12-15T10:15:55.964Z,6.00
2018-12-15T10:18:29.634Z,5.47
2018-12-15T10:20:58.731Z,6.97
2018-12-15T10:23:39.043Z,6.00
2018-12-15T10:26:10.463Z,5.20
2018-12-15T10:28:39.654Z,5.33
2018-12-15T10:31:16.401Z,4.60
2018-12-15T10:33:50.464Z,5.87
2018-12-15T10:36:31.220Z,6.13
2018-12-15T10:39:15.368Z,5.40
2018-12-15T10:41:48.759Z,6.17
2018-12-15T10:44:29.622Z,5.40
2018-12-15T10:47:02.958Z,6.50
2018-12-15T10:49:43.417Z,4.73
2018-12-15T10:52:23.402Z,5.07
2018-12-15T10:54:52.840Z,6.33
2018-12-15T10:57:26.523Z,5.37
2018-12-15T11:00:09.219Z,5.00
2018-12-15T11:02:49.365Z,6.33
2018-12-15T11:05:24.062Z,5.73
2018-12-15T11:07:57.895Z,6.87
2018-12-15T11:10:38.420Z,5.07
2018-12-15T11:13:19.259Z,5.97
2018-12-15T11:15:52.623Z,6.40
2018-12-15T11:18:33.472Z,5.20
2018-12-15T11:21:06.771Z,6.43
2018-12-15T11:23:47.143Z,5.17
2018-12-15T11:26:17.687Z,4.60
2018-12-15T11:28:58.243Z,6.20
2018-12-15T11:31:40.437Z,4.97
2018-12-15T11:34:21.208Z,3.83
2018-12-15T11:36:52.654Z,5.13
2018-12-15T11:39:26.394Z,6.20
2018-12-15T11:41:55.551Z,4.73
2018-12-15T11:44:24.606Z,4.90
2018-12-15T11:46:55.742Z,6.73
2018-12-15T11:49:36.128Z,5.13
2018-12-15T11:52:09.423Z,4.20
2018-12-15T11:54:50.044Z,5.07
2018-12-15T11:57:30.023Z,5.40
2018-12-15T12:00:10.041Z,5.53
2018-12-15T12:02:50.049Z,5.93
2018-12-15T12:05:24.242Z,6.17
2018-12-15T12:08:04.795Z,4.20
2018-12-15T12:10:34.159Z,5.27
2018-12-15T12:13:14.725Z,5.10
2018-12-15T12:15:45.207Z,5.77
2018-12-15T12:18:14.263Z,5.77
2018-12-15T12:20:45.227Z,6.57
2018-12-15T12:23:19.035Z,9.10
2018-12-15T12:25:50.039Z,4.77
2018-12-15T12:28:36.540Z,5.60
2018-12-15T12:31:16.503Z,5.23
2018-12-15T12:33:56.661Z,5.27
2018-12-15T12:36:27.146Z,5.60
2018-12-15T12:39:01.046Z,4.27
2018-12-15T12:41:30.253Z,5.43
2018-12-15T12:44:10.958Z,4.57
2018-12-15T12:46:42.358Z,5.73
2018-12-15T12:49:22.868Z,4.73
2018-12-15T12:52:03.705Z,5.57
2018-12-15T12:54:44.575Z,6.83
2018-12-15T12:57:17.942Z,5.23
2018-12-15T12:59:51.791Z,5.03
2018-12-15T13:02:32.415Z,5.23
2018-12-15T13:05:05.195Z,6.00
2018-12-15T13:07:45.614Z,5.77
2018-12-15T13:10:25.835Z,6.10
2018-12-15T13:13:08.805Z,6.40
2018-12-15T13:15:39.326Z,5.33
2018-12-15T13:18:20.906Z,6.20
2018-12-15T13:20:50.371Z,6.37
2018-12-15T13:23:30.827Z,6.47
2018-12-15T13:26:06.024Z,6.23
2018-12-15T13:28:46.752Z,6.97
2018-12-15T13:31:16.050Z,7.47
2018-12-15T13:33:56.634Z,7.17
2018-12-15T13:36:30.095Z,6.80
2018-12-15T13:39:04.679Z,6.83
2018-12-15T13:41:44.783Z,6.40
2018-12-15T13:44:18.081Z,8.00
2018-12-15T13:46:49.275Z,6.83
2018-12-15T13:49:29.676Z,7.53
2018-12-15T13:52:03.741Z,6.50
2018-12-15T13:54:32.790Z,5.97
2018-12-15T13:57:03.667Z,8.93
2018-12-15T13:59:37.483Z,7.40
2018-12-15T14:02:17.991Z,6.13
2018-12-15T14:04:57.986Z,6.27
2018-12-15T14:07:37.996Z,8.07
2018-12-15T14:10:12.275Z,7.67
2018-12-15T14:12:52.807Z,7.93
2018-12-15T14:15:23.475Z,6.90
2018-12-15T14:18:03.847Z,7.53
2018-12-15T14:20:44.956Z,7.37
2018-12-15T14:23:25.727Z,5.83
2018-12-15T14:25:56.279Z,6.37
2018-12-15T14:28:25.300Z,6.03
2018-12-15T14:31:05.843Z,6.40
2018-12-15T14:33:45.925Z,6.07
2018-12-15T14:36:19.301Z,6.43
2018-12-15T14:38:52.991Z,7.00
2018-12-15T14:41:22.194Z,5.90
2018-12-15T14:43:56.063Z,6.10
2018-12-15T14:46:24.982Z,5.70
2018-12-15T14:49:05.262Z,5.63
2018-12-15T14:51:50.215Z,5.60
2018-12-15T14:54:24.420Z,6.10
2018-12-15T14:56:55.655Z,5.50
2018-12-15T14:59:36.387Z,5.23
2018-12-15T15:02:16.311Z,5.70
2018-12-15T15:04:55.602Z,6.17
2018-12-15T15:07:36.455Z,6.43
2018-12-15T15:10:17.334Z,5.70
2018-12-15T15:12:57.500Z,5.63
2018-12-15T15:15:41.806Z,5.87
2018-12-15T15:18:10.792Z,6.37
2018-12-15T15:20:39.924Z,5.37
2018-12-15T15:23:20.345Z,7.77
2018-12-15T15:25:50.982Z,8.53
2018-12-15T15:28:19.962Z,7.17
2018-12-15T15:30:53.867Z,5.10
2018-12-15T15:33:34.384Z,6.37
2018-12-15T15:36:05.844Z,6.50
2018-12-15T15:38:36.887Z,6.00
2018-12-15T15:41:17.267Z,6.90
2018-12-15T15:43:57.238Z,5.57
2018-12-15T15:46:30.644Z,5.80
2018-12-15T15:51:52.678Z,6.57
2018-12-15T15:54:26.694Z,6.43
2018-12-15T15:56:57.979Z,5.40
2018-12-15T15:59:38.479Z,8.07
2018-12-15T16:02:19.375Z,7.67
2018-12-15T16:05:05.234Z,6.33
2018-12-15T16:07:39.416Z,7.87
2018-12-15T16:10:20.076Z,6.87
2018-12-15T16:13:00.247Z,7.60
2018-12-15T16:15:31.895Z,7.03
2018-12-15T16:18:12.127Z,8.50
2018-12-15T16:20:43.376Z,8.03
2018-12-15T16:23:17.242Z,7.80
2018-12-15T16:25:48.514Z,8.67
2018-12-15T16:28:19.784Z,8.97
2018-12-15T16:30:53.612Z,10.27
2018-12-15T16:33:34.287Z,10.10
2018-12-15T16:36:05.014Z,10.57
2018-12-15T16:38:36.134Z,9.90
2018-12-15T16:41:09.891Z,10.97
2018-12-15T16:46:33.588Z,10.63
2018-12-15T16:49:14.136Z,9.87
2018-12-15T16:51:54.135Z,10.57
2018-12-15T16:54:24.735Z,9.10
2018-12-15T16:56:55.950Z,12.00
2018-12-15T16:59:36.294Z,9.67
2018-12-15T17:02:21.367Z,11.30
2018-12-15T17:05:02.237Z,11.47
2018-12-15T17:07:42.979Z,10.90
2018-12-15T17:10:23.819Z,12.13
2018-12-15T17:12:57.188Z,11.70
2018-12-15T17:15:28.841Z,10.63
2018-12-15T17:18:08.945Z,10.33
2018-12-15T17:20:38.396Z,11.03
2018-12-15T17:23:07.595Z,11.33
2018-12-15T17:25:38.548Z,11.90
2018-12-15T17:28:18.964Z,11.00
2018-12-15T17:30:53.159Z,10.43
2018-12-15T17:33:33.762Z,12.93
2018-12-15T17:36:07.934Z,13.10
2018-12-15T17:38:48.507Z,11.07
2018-12-15T17:41:28.502Z,12.60
2018-12-15T17:44:10.031Z,32.63
2018-12-15T17:46:40.979Z,12.40
2018-12-15T17:49:21.436Z,12.37
2018-12-15T17:52:00.623Z,11.40
2018-12-15T17:54:31.655Z,12.53
2018-12-15T17:57:02.673Z,12.93
2018-12-15T17:59:36.493Z,14.30
2018-12-15T18:02:15.467Z,12.83
2018-12-15T18:04:56.191Z,10.57
2018-12-15T18:07:36.324Z,11.50
2018-12-15T18:10:07.274Z,11.23
2018-12-15T18:12:48.117Z,11.47
2018-12-15T18:15:21.364Z,11.57
2018-12-15T18:26:30.887Z,12.37
2018-12-15T18:29:11.215Z,12.30
2018-12-15T18:31:51.432Z,11.70
2018-12-15T18:34:22.059Z,13.30
2018-12-15T18:36:53.071Z,12.83
2018-12-15T18:39:33.577Z,13.50
2018-12-15T18:42:13.611Z,14.07
2018-12-15T18:44:44.932Z,10.53
2018-12-15T18:47:25.391Z,9.53
2018-12-15T18:50:05.421Z,10.30
2018-12-15T18:52:34.869Z,11.23
2018-12-15T18:55:08.041Z,9.40
2018-12-15T18:57:48.347Z,9.70
2018-12-15T19:00:28.420Z,10.70
2018-12-15T19:02:57.751Z,10.43
2018-12-15T19:05:28.839Z,9.80
2018-12-15T19:11:02.205Z,9.50
2018-12-15T19:13:43.070Z,8.50
2018-12-15T19:16:17.883Z,10.70
2018-12-15T19:18:58.130Z,10.13
2018-12-15T19:21:35.557Z,8.63
2018-12-15T19:24:16.033Z,9.67
2018-12-15T19:26:46.555Z,9.30
2018-12-15T19:29:15.576Z,9.83
2018-12-15T19:31:49.478Z,9.10
2018-12-15T19:34:29.952Z,11.23
2018-12-15T19:37:00.600Z,10.93
2018-12-15T19:39:46.131Z,8.43
2018-12-15T19:42:26.198Z,11.03
2018-12-15T19:44:57.614Z,9.83
2018-12-15T19:47:38.167Z,9.53
2018-12-15T19:50:24.426Z,10.33
2018-12-15T19:52:59.372Z,10.87
2018-12-15T19:55:30.586Z,11.20
2018-12-15T20:01:03.856Z,11.27
2018-12-15T20:03:36.210Z,10.73
2018-12-15T20:06:07.208Z,8.93
2018-12-15T20:08:47.775Z,10.37
2018-12-15T20:11:28.854Z,10.60
2018-12-15T20:13:58.294Z,10.77
2018-12-15T20:16:29.441Z,9.90
2018-12-15T20:19:02.934Z,11.07
2018-12-15T20:21:43.752Z,10.90
2018-12-15T20:24:23.922Z,9.93
2018-12-15T20:26:54.451Z,11.00
2018-12-15T20:29:35.272Z,10.10
2018-12-15T20:32:16.872Z,11.03
2018-12-15T20:34:57.299Z,12.73
2018-12-15T20:37:30.673Z,11.13
2018-12-15T20:40:11.503Z,10.83
2018-12-15T20:42:51.575Z,10.67
2018-12-15T20:45:24.107Z,10.20
2018-12-15T20:47:57.737Z,10.30
2018-12-15T20:50:40.535Z,10.20
2018-12-15T20:53:22.640Z,11.07
2018-12-15T20:55:54.080Z,11.00
2018-12-15T20:58:27.971Z,11.67
2018-12-15T21:01:08.577Z,10.97
2018-12-15T21:03:54.398Z,11.10
2018-12-15T21:06:25.712Z,10.80
2018-12-15T21:08:54.843Z,11.20
2018-12-15T21:11:36.509Z,10.47
2018-12-15T21:14:17.279Z,10.90
2018-12-15T21:16:47.851Z,10.00
2018-12-15T21:19:28.437Z,11.10
2018-12-15T21:25:08.145Z,10.70
2018-12-15T21:27:46.621Z,10.50
2018-12-15T21:30:19.864Z,11.70
2018-12-15T21:33:00.636Z,8.87
2018-12-15T21:35:38.859Z,12.67
2018-12-15T21:38:19.643Z,10.67
2018-12-15T21:40:59.607Z,11.07
2018-12-15T21:43:32.935Z,11.97
2018-12-15T21:46:06.927Z,12.87
2018-12-15T21:48:47.533Z,10.90
2018-12-15T21:51:21.875Z,9.77
2018-12-15T21:54:02.434Z,11.17
2018-12-15T21:56:33.023Z,12.00
2018-12-15T21:59:02.050Z,11.47
2018-12-15T22:01:31.071Z,11.87
2018-12-15T22:04:11.876Z,12.00
2018-12-15T22:06:43.218Z,11.13
2018-12-15T22:09:23.743Z,10.40
2018-12-15T22:12:03.896Z,11.07
2018-12-15T22:14:38.095Z,10.73
2018-12-15T22:17:09.092Z,12.57
2018-12-15T22:19:49.558Z,9.27
2018-12-15T22:22:30.420Z,11.57
2018-12-15T22:25:04.108Z,11.70
2018-12-15T22:27:44.639Z,9.80
2018-12-15T22:30:15.296Z,10.93
2018-12-15T22:32:55.758Z,10.50
2018-12-15T22:35:36.640Z,9.80
2018-12-15T22:38:16.731Z,11.03
2018-12-15T22:40:56.703Z,9.57
2018-12-15T22:43:37.629Z,9.90
2018-12-15T22:46:08.348Z,9.37
2018-12-15T22:48:48.880Z,10.63
2018-12-15T22:51:23.023Z,10.30
2018-12-15T22:53:54.002Z,10.97
2018-12-15T22:59:10.379Z,9.77
2018-12-15T23:01:51.095Z,11.17
2018-12-15T23:04:21.725Z,11.47
2018-12-15T23:06:52.647Z,11.37
2018-12-15T23:09:33.197Z,9.20
2018-12-15T23:12:07.318Z,10.20
2018-12-15T23:14:41.675Z,11.27
2018-12-15T23:17:15.375Z,11.43
2018-12-15T23:22:48.706Z,9.20
2018-12-15T23:25:22.039Z,11.37
2018-12-15T23:28:02.508Z,9.20
2018-12-15T23:30:42.460Z,11.13
2018-12-15T23:33:23.447Z,9.47
2018-12-15T23:35:54.835Z,11.23
2018-12-15T23:38:35.324Z,9.07
2018-12-15T23:41:05.898Z,9.37
2018-12-15T23:43:46.281Z,9.73
2018-12-15T23:46:17.600Z,10.20
2018-12-15T23:48:51.239Z,11.43
2018-12-15T23:51:31.944Z,11.63
2018-12-15T23:54:12.791Z,10.40
2018-12-15T23:56:44.270Z,9.97
